Grovetown, GA (30813)

4:07 AM EDT on September 05, 2015 (GMT -0400)
Indian Springs | | Change Station
CLOSE
Current Station
Personal Weather Station
Location: Grovetown, GA
Elevation: 302 ft
Nearby Weather Stations

Elev 302 ft 33.47 °N, 82.22 °W | Updated 59 seconds ago

Mostly Cloudy
Mostly Cloudy
73.0 °F
Feels Like 72 °F
N
0.0
Wind Variable Wind from NNW
Gusts 0.0 mph

Today
High -- | Low -- °F
--% Chance of Precip.
Yesterday
High -- | Low -- °F
Precip. -- in
7:05 AM 7:49 PM
Waning Gibbous, 51% visible
Pressure 30.03 in
Visibility 10.0 miles
Clouds Clear
Heat Index 72 °F
Dew Point 68 °F
Humidity 84%
Rainfall 0.00 in
Snow Depth Not available.
UV 0 out of 12
Pollen 8.80 out of 12
Air Quality Not available.
Flu Activity Not available.
METAR KDNL 050753Z AUTO 09007KT 10SM CLR 23/20 A3005 RMK AO2 LTG DSNT E SLP168 T02280200
Pressure 30.03 in
Visibility 10.0 miles
Clouds Clear
Heat Index 72 °F
Dew Point 68 °F
Humidity 84%
Rainfall 0.00 in
Snow Depth Not available.
UV 0 out of 12
Pollen 8.80 out of 12
Air Quality Not available.
Flu Activity Not available.
METAR KDNL 050753Z AUTO 09007KT 10SM CLR 23/20 A3005 RMK AO2 LTG DSNT E SLP168 T02280200

10-Day Weather Forecast

×

Almanac

Astronomy

Sep. 05, 2015 Rise Set
Actual Time
Civil Twilight
Nautical Twilight
Astronomical Twilight
Moon
Length of Visible Light
Length of Day
Tomorrow will be .
, % of the Moon is Illuminated

Today's Extremes

State Highs State Lows

Community

WunderPhotos

Upload Photos

1,852,438 photos uploaded!

WunderBlogs® & News

Nearby

Air Quality

  Air Quality AQ Index Pollutant
Not available.

Snow Depth

Station Depth Elevation

Earthquake Activity

City Distance Mag. Time & Date
Minimum magnitude displayed is 2.5.

Coastal Water Temperatures

Place Temperature

Stations

Nearby Weather Stations

Station Location Temp. Windchill Dew Point Humidity Wind Precip. Elev Updated Type